Arnold, Kansas
Current Conditions -  °F | °C
As of 11:15 PM on Friday 24 Oct 2014 (Local Time) from KHYS Reporting Station
Clear Clear  
Wind Chill: 61°   Ceiling: Unl
Heat Index: 61°   Visibility: 10mi
Dew Point: 48°   Wind: 5mph
Humidity: 63%   Direction: 250°WSW
Pressure: 30.03"   Gusts: NA
Location:  38.64°N, 100.05°W
Report Text: KHYS 250415Z AUTO 25004KT 10SM CLR 16/09 A3003 RMK AO1
Loading
Personal Weather Stations






























Interactive Weather Map
Tropical Storm Tracking
New forecast layout! Learn more

10-Day Weather Forecast

Advertisements
Track Severe Weather on mobile